Carmel, California
Current Conditions -  °F | °C
As of 6:54 AM on Wednesday 22 Oct 2014 (Local Time) from KMRY Reporting Station
Clear Clear  
Wind Chill: 52°   Ceiling: Unl
Heat Index: 52°   Visibility: 10mi
Dew Point: 45°   Wind: 3mph
Humidity: 77%   Direction: 100°E
Pressure: 30.03"   Gusts: NA
Location:  36.56°N, 121.92°W
Report Text: KMRY 221354Z 10003KT 10SM CLR 11/07 A3003 RMK AO2 SLP182 T01110072
Loading
Personal Weather Stations






























Interactive Weather Map
Tropical Storm Tracking
New forecast layout! Learn more

10-Day Weather Forecast

Advertisements
Track Severe Weather on mobile